< < Back
Terminal Aerodrome Forecast


Current Version              Previous Versions:   1  2  3  4  5  6  7  8  9  

Terminal Aerodrome Forecast

580
FTUS42 KMLB 011507 AAA
TAFMCO
TAF AMD
KMCO 011507Z 0115/0212 27011KT P6SM BKN040
     FM011800 27011KT P6SM SCT045
     FM020000 30006KT P6SM FEW070 BKN250=



Latest METAR

662
SAUS70 KWBC 020300 RRN
MTRMCO
METAR KMCO 020253Z 30007KT 10SM SCT250 22/17 A3015 RMK AO2 SLP206
T02220172 51021


USA.gov is the U.S. government's official web portal to all federal, state and local government web resources and services.